Time;durP1;ratioP1;P1;durP2;ratioP2;P2;SDS_P1;SDS_P2;PMS_P1;PMS_P2;Temp;Humidity;BMP_temperature;BMP_pressure;BME280_temperature;BME280_humidity;BME280_pressure;Samples;Min_cycle;Max_cycle;Signal;HPM_P1;HPM_P2
2021/10/30 00:02:26;;;;;;;9.73;7.90;;;12.00;99.90;;;;;;5004713;28;20659;-70
2021/10/30 00:04:52;;;;;;;10.50;8.40;;;12.00;99.90;;;;;;5019171;28;20199;-69
2021/10/30 00:07:20;;;;;;;9.97;7.93;;;12.00;99.90;;;;;;5023222;28;20627;-69
2021/10/30 00:09:45;;;;;;;9.30;7.90;;;12.00;99.90;;;;;;5020987;28;20203;-69
2021/10/30 00:12:11;;;;;;;8.80;7.90;;;12.00;99.90;;;;;;5020824;28;20667;-69
2021/10/30 00:14:38;;;;;;;8.90;7.87;;;12.00;99.90;;;;;;5021631;28;20271;-69
2021/10/30 00:17:05;;;;;;;8.83;7.73;;;12.00;99.90;;;;;;5020894;28;20826;-69
2021/10/30 00:19:31;;;;;;;9.10;7.87;;;12.00;99.90;;;;;;5021656;28;20619;-69
2021/10/30 00:21:59;;;;;;;10.17;8.20;;;12.00;99.90;;;;;;5021822;28;20766;-69
2021/10/30 00:24:32;;;;;;;9.97;8.33;;;12.00;99.90;;;;;;5021435;28;20209;-69
2021/10/30 00:27:02;;;;;;;8.40;7.43;;;12.00;99.90;;;;;;5022463;28;21340;-69
2021/10/30 00:29:31;;;;;;;9.30;8.30;;;12.00;99.90;;;;;;5017976;28;20717;-68
2021/10/30 00:31:57;;;;;;;8.40;7.50;;;12.00;99.90;;;;;;5003728;28;20663;-69
2021/10/30 00:34:27;;;;;;;8.60;7.70;;;12.00;99.90;;;;;;5020940;28;20742;-69
2021/10/30 00:36:53;;;;;;;8.90;7.90;;;12.00;99.90;;;;;;5023431;28;20957;-70
2021/10/30 00:39:21;;;;;;;8.63;7.03;;;12.00;99.90;;;;;;5022401;28;20615;-70
2021/10/30 00:41:53;;;;;;;8.77;7.43;;;12.00;99.90;;;;;;5020839;28;21211;-70
2021/10/30 00:44:23;;;;;;;7.60;6.87;;;12.00;99.90;;;;;;5020614;28;20979;-70
2021/10/30 00:46:54;;;;;;;8.40;7.50;;;12.00;99.90;;;;;;5018318;28;20623;-70
2021/10/30 00:49:28;;;;;;;8.80;7.90;;;12.00;99.90;;;;;;5019165;28;20616;-70
2021/10/30 00:52:01;;;;;;;9.47;7.30;;;12.00;99.90;;;;;;5022488;28;20662;-69
2021/10/30 00:54:30;;;;;;;8.50;7.70;;;12.00;99.90;;;;;;5020279;28;21348;-70
2021/10/30 00:57:02;;;;;;;8.73;7.30;;;12.00;99.90;;;;;;5020943;28;20627;-70
2021/10/30 00:59:32;;;;;;;8.07;7.27;;;12.00;99.90;;;;;;5019004;28;20626;-69
2021/10/30 01:02:01;;;;;;;9.40;7.63;;;12.00;99.90;;;;;;5018332;28;20650;-70
2021/10/30 01:04:26;;;;;;;9.50;7.97;;;12.00;99.90;;;;;;5021913;28;21265;-69
2021/10/30 01:06:54;;;;;;;9.00;7.70;;;12.00;99.90;;;;;;5004383;28;21238;-69
2021/10/30 01:09:21;;;;;;;8.87;7.97;;;12.00;99.90;;;;;;5021556;28;20311;-72
2021/10/30 01:11:47;;;;;;;8.30;7.50;;;12.00;99.90;;;;;;5018009;28;20704;-72
2021/10/30 01:14:18;;;;;;;8.80;6.97;;;12.00;99.90;;;;;;5022492;28;20681;-69
2021/10/30 01:17:03;;;;;;;8.33;7.40;;;12.00;99.90;;;;;;5020044;28;20685;-69
2021/10/30 01:19:32;;;;;;;8.23;7.20;;;12.00;99.90;;;;;;5021900;28;20576;-70
2021/10/30 01:22:17;;;;;;;8.50;7.70;;;12.00;99.90;;;;;;5020002;28;20666;-70
2021/10/30 01:24:45;;;;;;;7.67;6.97;;;11.90;99.90;;;;;;5021800;28;20602;-69
2021/10/30 01:27:11;;;;;;;8.47;7.63;;;11.90;99.90;;;;;;5000752;28;20620;-70
2021/10/30 01:29:37;;;;;;;8.67;7.77;;;11.90;99.90;;;;;;5022946;28;20611;-69
2021/10/30 01:32:03;;;;;;;9.20;7.20;;;12.00;99.90;;;;;;5018442;28;20662;-70
2021/10/30 01:34:31;;;;;;;9.80;7.10;;;12.00;99.90;;;;;;5019363;28;20290;-70
2021/10/30 01:36:57;;;;;;;11.50;7.77;;;12.00;99.90;;;;;;5024669;28;20181;-70
2021/10/30 01:39:26;;;;;;;8.63;7.73;;;12.00;99.90;;;;;;5019416;28;20607;-69
2021/10/30 01:41:54;;;;;;;8.30;7.20;;;12.00;99.90;;;;;;5018992;28;20221;-70
2021/10/30 01:44:22;;;;;;;7.53;6.70;;;12.00;99.90;;;;;;5020534;28;20611;-70
2021/10/30 01:46:57;;;;;;;9.10;7.97;;;12.00;99.90;;;;;;5016371;28;20671;-72
2021/10/30 01:49:23;;;;;;;8.60;7.40;;;12.00;99.90;;;;;;5020538;28;21047;-70
2021/10/30 01:51:58;;;;;;;7.70;6.70;;;12.00;99.90;;;;;;5021917;28;20639;-70
2021/10/30 01:54:35;;;;;;;7.03;6.33;;;12.00;99.90;;;;;;5021060;28;20686;-69
2021/10/30 01:57:00;;;;;;;7.60;6.90;;;11.90;99.90;;;;;;5020383;28;20638;-70
2021/10/30 01:59:26;;;;;;;7.53;6.77;;;12.00;99.90;;;;;;5003209;28;20623;-69
2021/10/30 02:01:54;;;;;;;7.40;6.70;;;12.00;99.90;;;;;;5000273;28;20832;-69
2021/10/30 02:04:19;;;;;;;8.97;6.97;;;12.00;99.90;;;;;;5024680;28;20189;-69
2021/10/30 02:06:45;;;;;;;7.30;6.60;;;12.00;99.90;;;;;;5023014;28;20625;-72
2021/10/30 02:09:11;;;;;;;8.80;6.60;;;11.90;99.90;;;;;;5020673;28;20189;-70
2021/10/30 02:11:36;;;;;;;7.40;6.60;;;11.90;99.90;;;;;;5024042;28;20226;-69
2021/10/30 02:14:04;;;;;;;8.10;6.97;;;12.00;99.90;;;;;;5013947;28;20543;-70
2021/10/30 02:16:35;;;;;;;9.17;6.70;;;11.90;99.90;;;;;;5020240;28;20185;-72
2021/10/30 02:19:00;;;;;;;6.83;6.20;;;12.00;99.90;;;;;;5024128;28;20575;-70
2021/10/30 02:21:28;;;;;;;8.20;7.37;;;11.90;99.90;;;;;;5020907;28;20700;-69
2021/10/30 02:23:58;;;;;;;6.97;6.37;;;11.90;99.90;;;;;;5022580;28;20365;-70
2021/10/30 02:26:26;;;;;;;8.13;7.33;;;11.90;99.90;;;;;;5021503;28;21104;-69
2021/10/30 02:28:55;;;;;;;7.67;6.53;;;11.90;99.90;;;;;;5021106;28;20879;-70
2021/10/30 02:31:25;;;;;;;8.70;7.27;;;11.90;99.90;;;;;;5020101;28;20647;-70
2021/10/30 02:33:51;;;;;;;8.27;6.40;;;12.00;99.90;;;;;;5021082;28;20730;-70
2021/10/30 02:36:16;;;;;;;6.97;6.30;;;12.00;99.90;;;;;;5021010;28;20702;-70
2021/10/30 02:38:42;;;;;;;8.00;7.20;;;12.00;99.90;;;;;;5022163;28;20189;-69
2021/10/30 02:41:10;;;;;;;6.90;6.30;;;11.60;99.90;;;;;;5003441;28;20292;-69
2021/10/30 02:43:40;;;;;;;8.33;7.07;;;11.90;99.90;;;;;;5023873;28;20209;-70
2021/10/30 02:46:06;;;;;;;7.80;7.07;;;12.00;99.90;;;;;;5023124;28;20641;-69
2021/10/30 02:48:33;;;;;;;8.57;7.03;;;11.90;99.90;;;;;;5017964;28;20615;-70
2021/10/30 02:50:59;;;;;;;7.13;6.43;;;11.90;99.90;;;;;;5019790;28;20302;-69
2021/10/30 02:53:27;;;;;;;7.43;6.80;;;11.90;99.90;;;;;;5022990;28;20690;-69
2021/10/30 02:55:58;;;;;;;6.90;6.20;;;12.20;99.90;;;;;;5020643;28;20192;-69
2021/10/30 02:58:23;;;;;;;7.43;6.73;;;11.90;99.90;;;;;;5023347;28;20602;-70
2021/10/30 03:00:49;;;;;;;8.00;6.87;;;11.90;99.90;;;;;;5005249;28;21203;-69
2021/10/30 03:03:32;;;;;;;7.63;6.87;;;11.90;99.90;;;;;;5021802;28;20283;-69
2021/10/30 03:05:58;;;;;;;7.23;6.53;;;11.90;99.90;;;;;;5024250;28;20553;-70
2021/10/30 03:08:24;;;;;;;7.77;7.00;;;11.80;99.90;;;;;;5023293;28;20618;-69
2021/10/30 03:10:52;;;;;;;8.03;7.23;;;11.80;99.90;;;;;;5002970;28;20228;-70
2021/10/30 03:13:30;;;;;;;7.90;6.60;;;11.80;99.90;;;;;;5021736;28;20260;-69
2021/10/30 03:15:58;;;;;;;8.47;7.50;;;11.80;99.90;;;;;;5022167;28;20576;-69
2021/10/30 03:18:24;;;;;;;7.37;6.67;;;11.80;99.90;;;;;;5024988;28;20630;-71
2021/10/30 03:20:50;;;;;;;8.57;7.00;;;11.80;99.90;;;;;;5023979;28;21211;-70
2021/10/30 03:23:23;;;;;;;8.90;7.70;;;11.70;99.90;;;;;;5005414;28;20213;-70
2021/10/30 03:25:51;;;;;;;9.07;7.37;;;11.70;99.90;;;;;;5025479;28;20670;-69
2021/10/30 03:28:16;;;;;;;8.40;6.83;;;11.60;99.90;;;;;;5012968;28;20604;-70
2021/10/30 03:30:46;;;;;;;7.67;6.87;;;11.60;99.90;;;;;;5022366;28;21013;-70
2021/10/30 03:33:12;;;;;;;9.63;7.03;;;11.80;99.90;;;;;;5024908;28;20235;-69
2021/10/30 03:35:43;;;;;;;8.27;7.47;;;11.80;99.90;;;;;;5022559;28;20619;-69
2021/10/30 03:38:14;;;;;;;9.20;7.53;;;11.90;99.90;;;;;;5023458;28;20271;-72
2021/10/30 03:40:42;;;;;;;8.00;7.20;;;11.70;99.90;;;;;;5021301;28;21186;-71
2021/10/30 03:43:07;;;;;;;8.53;7.23;;;11.50;99.90;;;;;;5022498;28;20643;-71
2021/10/30 03:45:39;;;;;;;7.73;6.93;;;11.40;99.90;;;;;;5021017;28;20635;-71
2021/10/30 03:48:07;;;;;;;7.70;6.27;;;11.20;99.90;;;;;;5019503;28;20197;-71
2021/10/30 03:50:34;;;;;;;19.43;17.73;;;11.40;99.90;;;;;;5018546;28;20699;-70
2021/10/30 03:53:02;;;;;;;15.37;13.83;;;11.30;99.90;;;;;;5022508;28;20660;-72
2021/10/30 03:55:30;;;;;;;6.93;6.10;;;11.20;99.90;;;;;;5013308;28;20610;-73
2021/10/30 03:57:56;;;;;;;7.60;6.50;;;11.20;99.90;;;;;;5021206;28;20619;-71
2021/10/30 04:00:21;;;;;;;8.57;7.77;;;11.20;99.90;;;;;;5019367;28;20639;-70
2021/10/30 04:02:49;;;;;;;8.37;7.53;;;11.20;99.90;;;;;;5021542;28;20205;-71
2021/10/30 04:05:22;;;;;;;9.60;7.27;;;11.10;99.90;;;;;;5020550;28;20645;-72
2021/10/30 04:07:50;;;;;;;8.33;7.53;;;11.00;99.90;;;;;;5020687;28;20690;-71
2021/10/30 04:10:21;;;;;;;9.30;8.30;;;11.00;99.90;;;;;;5020946;28;20693;-71
2021/10/30 04:12:47;;;;;;;10.03;8.10;;;11.00;99.90;;;;;;5021789;28;21020;-70
2021/10/30 04:15:12;;;;;;;8.47;7.33;;;10.90;99.90;;;;;;5020638;28;20624;-71
2021/10/30 04:17:38;;;;;;;9.20;7.03;;;10.90;99.90;;;;;;5024836;28;20264;-71
2021/10/30 04:20:04;;;;;;;11.83;7.97;;;10.80;99.90;;;;;;5021321;28;20609;-73
2021/10/30 04:22:32;;;;;;;11.40;8.50;;;10.80;99.90;;;;;;5015785;28;20213;-73
2021/10/30 04:24:58;;;;;;;11.07;8.17;;;10.80;99.90;;;;;;5020095;28;21126;-73
2021/10/30 04:27:26;;;;;;;7.93;7.00;;;10.80;99.90;;;;;;5023119;28;20690;-73
2021/10/30 04:29:52;;;;;;;8.97;8.07;;;10.80;99.90;;;;;;5020979;28;22858;-72
2021/10/30 04:32:22;;;;;;;8.73;7.93;;;10.80;99.90;;;;;;5023425;28;20765;-72
2021/10/30 04:34:50;;;;;;;8.47;7.63;;;10.70;99.90;;;;;;5022505;28;20206;-71
2021/10/30 04:37:16;;;;;;;8.33;7.47;;;10.60;99.90;;;;;;5022982;28;20599;-72
2021/10/30 04:39:47;;;;;;;7.93;7.20;;;10.70;99.90;;;;;;5019528;28;20613;-72
2021/10/30 04:42:14;;;;;;;8.37;7.27;;;10.70;99.90;;;;;;5020052;28;20755;-72
2021/10/30 04:44:40;;;;;;;8.53;7.73;;;10.70;99.90;;;;;;5018091;28;21167;-72
2021/10/30 04:47:06;;;;;;;8.80;7.63;;;10.60;99.90;;;;;;5019478;28;20611;-72
2021/10/30 04:49:34;;;;;;;8.37;7.50;;;10.60;99.90;;;;;;5016174;28;20195;-72
2021/10/30 04:51:59;;;;;;;8.20;7.40;;;10.70;99.90;;;;;;5022137;28;21214;-72
2021/10/30 04:54:25;;;;;;;8.33;7.53;;;10.70;99.90;;;;;;5019790;28;20622;-72
2021/10/30 04:56:51;;;;;;;9.17;8.23;;;10.70;99.90;;;;;;5021956;28;20559;-72
2021/10/30 04:59:23;;;;;;;8.00;7.20;;;10.70;99.90;;;;;;5020808;28;20651;-71
2021/10/30 05:01:52;;;;;;;9.13;8.10;;;10.70;99.90;;;;;;5018433;28;20277;-73
2021/10/30 05:04:23;;;;;;;10.20;8.07;;;10.70;99.90;;;;;;5022175;28;20781;-73
2021/10/30 05:06:54;;;;;;;8.10;6.80;;;10.70;99.90;;;;;;5022368;28;20685;-73
2021/10/30 05:09:22;;;;;;;9.40;7.37;;;10.60;99.90;;;;;;5019924;28;20611;-73
2021/10/30 05:11:52;;;;;;;8.73;7.53;;;10.60;99.90;;;;;;5018796;28;20700;-73
2021/10/30 05:14:19;;;;;;;8.93;8.03;;;10.60;99.90;;;;;;5021447;28;20601;-73
2021/10/30 05:16:48;;;;;;;9.57;7.60;;;10.70;99.90;;;;;;5021047;28;20695;-73
2021/10/30 05:19:19;;;;;;;8.50;7.70;;;10.60;99.90;;;;;;5021398;28;20611;-73
2021/10/30 05:21:47;;;;;;;8.60;7.80;;;10.70;99.90;;;;;;5019705;28;20616;-73
2021/10/30 05:24:20;;;;;;;8.20;7.37;;;10.60;99.90;;;;;;5019533;28;20702;-73
2021/10/30 05:26:46;;;;;;;8.63;7.77;;;10.70;99.90;;;;;;5021053;28;20706;-73
2021/10/30 05:29:12;;;;;;;8.20;7.40;;;10.70;99.90;;;;;;5020400;28;20702;-73
2021/10/30 05:31:37;;;;;;;8.53;7.73;;;10.80;99.90;;;;;;5018442;28;20225;-73
2021/10/30 05:34:05;;;;;;;8.57;7.77;;;10.70;99.90;;;;;;5019084;28;20217;-73
2021/10/30 05:36:34;;;;;;;8.93;8.03;;;10.80;99.90;;;;;;5023791;28;20212;-72
2021/10/30 05:39:00;;;;;;;9.13;8.23;;;10.70;99.90;;;;;;5027570;28;20968;-72
2021/10/30 05:41:33;;;;;;;8.63;7.73;;;10.70;99.90;;;;;;5022713;28;20709;-73
2021/10/30 05:44:02;;;;;;;9.47;8.47;;;10.60;99.90;;;;;;5024939;28;20287;-72
2021/10/30 05:46:35;;;;;;;9.70;7.93;;;10.60;99.90;;;;;;5026491;28;20718;-72
2021/10/30 05:49:06;;;;;;;8.27;7.40;;;10.60;99.90;;;;;;5019493;28;20977;-72
2021/10/30 05:51:34;;;;;;;8.57;7.70;;;10.70;99.90;;;;;;5024284;28;21401;-73
2021/10/30 05:54:01;;;;;;;8.80;7.47;;;10.70;99.90;;;;;;5025203;28;21230;-72
2021/10/30 05:56:26;;;;;;;9.10;8.30;;;10.70;99.90;;;;;;5025484;28;20646;-73
2021/10/30 05:58:54;;;;;;;9.33;8.17;;;10.70;99.90;;;;;;5026527;28;21149;-73
2021/10/30 06:01:22;;;;;;;9.43;8.43;;;10.60;99.90;;;;;;5025417;28;20631;-73
2021/10/30 06:03:48;;;;;;;9.00;8.10;;;10.60;99.90;;;;;;5003275;28;21018;-72
2021/10/30 06:06:16;;;;;;;9.17;8.13;;;10.60;99.90;;;;;;5008549;28;20694;-72
2021/10/30 06:08:42;;;;;;;9.50;8.50;;;10.50;99.90;;;;;;5024974;28;21543;-72
2021/10/30 06:11:07;;;;;;;9.83;7.70;;;10.60;99.90;;;;;;5022210;28;20766;-72
2021/10/30 06:13:35;;;;;;;9.70;8.40;;;10.50;99.90;;;;;;5004423;28;20954;-73
2021/10/30 06:16:03;;;;;;;10.00;8.80;;;10.60;99.90;;;;;;5019862;28;20357;-73
2021/10/30 06:18:29;;;;;;;9.83;8.80;;;10.50;99.90;;;;;;5023194;28;20694;-72
2021/10/30 06:20:54;;;;;;;11.10;8.27;;;10.60;99.90;;;;;;5024661;28;20730;-72
2021/10/30 06:23:20;;;;;;;9.07;8.17;;;10.50;99.90;;;;;;5023243;28;20274;-72
2021/10/30 06:25:46;;;;;;;10.77;8.80;;;10.60;99.90;;;;;;5024848;28;20189;-73
2021/10/30 06:28:12;;;;;;;10.20;9.00;;;10.60;99.90;;;;;;5024286;28;20653;-72
2021/10/30 06:30:40;;;;;;;9.33;8.43;;;10.60;99.90;;;;;;5007807;28;20721;-73
2021/10/30 06:33:09;;;;;;;10.10;9.00;;;10.50;99.90;;;;;;5027278;28;20259;-72
2021/10/30 06:35:37;;;;;;;13.83;9.37;;;10.50;99.90;;;;;;5022127;28;20599;-73
2021/10/30 06:38:05;;;;;;;12.27;9.50;;;10.50;99.90;;;;;;5022936;28;21127;-72
2021/10/30 06:40:33;;;;;;;10.10;9.10;;;10.60;99.90;;;;;;5020711;28;20636;-72
2021/10/30 06:42:59;;;;;;;9.83;8.70;;;10.50;99.90;;;;;;5021181;28;21378;-72
2021/10/30 06:45:27;;;;;;;10.57;8.63;;;10.60;99.90;;;;;;5019779;28;20627;-73
2021/10/30 06:47:52;;;;;;;10.90;9.50;;;10.60;99.90;;;;;;5026223;28;20215;-72
2021/10/30 06:50:21;;;;;;;12.10;9.13;;;10.50;99.90;;;;;;5021378;28;20663;-72
2021/10/30 06:52:51;;;;;;;10.60;9.50;;;10.50;99.90;;;;;;5019182;28;20224;-72
2021/10/30 06:55:21;;;;;;;11.00;9.10;;;10.60;99.90;;;;;;5023297;28;20592;-72
2021/10/30 06:57:53;;;;;;;10.27;9.13;;;10.60;99.90;;;;;;5022243;28;21276;-73
2021/10/30 07:00:19;;;;;;;12.47;8.77;;;10.60;99.90;;;;;;5019904;28;20723;-72
2021/10/30 07:02:51;;;;;;;11.77;10.57;;;10.70;99.90;;;;;;5022000;28;20742;-72
2021/10/30 07:05:20;;;;;;;11.60;9.30;;;10.60;99.90;;;;;;5022338;28;20760;-71
2021/10/30 07:07:45;;;;;;;12.70;10.20;;;10.60;99.90;;;;;;5025149;28;20594;-71
2021/10/30 07:10:11;;;;;;;12.30;9.53;;;10.60;99.90;;;;;;5025721;28;20622;-71
2021/10/30 07:12:40;;;;;;;12.40;9.60;;;10.60;99.90;;;;;;5025136;28;20218;-70
2021/10/30 07:15:12;;;;;;;11.50;9.17;;;10.60;99.90;;;;;;5009323;28;21214;-68
2021/10/30 07:17:43;;;;;;;10.50;8.93;;;10.70;99.90;;;;;;5021640;28;20595;-68
2021/10/30 07:20:15;;;;;;;12.20;9.60;;;10.70;99.90;;;;;;5024106;28;20671;-68
2021/10/30 07:22:49;;;;;;;10.50;9.40;;;10.80;99.90;;;;;;5025365;28;20638;-68
2021/10/30 07:25:18;;;;;;;10.93;9.20;;;10.80;99.90;;;;;;5019812;28;20623;-67
2021/10/30 07:27:47;;;;;;;12.00;9.73;;;10.80;99.90;;;;;;5020694;28;21231;-68
2021/10/30 07:30:13;;;;;;;10.30;9.13;;;10.80;99.90;;;;;;5017295;28;20655;-68
2021/10/30 07:32:39;;;;;;;12.10;9.43;;;10.90;99.90;;;;;;5011452;28;20651;-67
2021/10/30 07:35:06;;;;;;;10.30;9.30;;;10.90;99.90;;;;;;5014497;28;21325;-67
2021/10/30 07:37:33;;;;;;;10.53;9.50;;;10.90;99.90;;;;;;5014901;28;20706;-68
2021/10/30 07:39:58;;;;;;;11.60;9.70;;;11.00;99.90;;;;;;5016285;28;21256;-63
2021/10/30 07:42:25;;;;;;;12.27;10.50;;;11.00;99.90;;;;;;4995491;28;20655;-63
2021/10/30 07:44:51;;;;;;;13.23;10.17;;;11.10;99.90;;;;;;5017864;28;20208;-68
2021/10/30 07:47:16;;;;;;;10.50;9.50;;;11.10;99.90;;;;;;5015667;28;20692;-66
2021/10/30 07:49:42;;;;;;;11.30;9.07;;;11.20;99.90;;;;;;5016624;28;20966;-68
2021/10/30 07:52:10;;;;;;;11.43;10.27;;;11.20;99.90;;;;;;5010429;28;20241;-67
2021/10/30 07:54:36;;;;;;;13.63;9.70;;;11.20;99.90;;;;;;5011759;28;20185;-66
2021/10/30 07:57:03;;;;;;;10.50;8.80;;;11.20;99.90;;;;;;5010084;28;20719;-65
2021/10/30 07:59:30;;;;;;;12.17;10.73;;;11.30;99.90;;;;;;5005612;28;20983;-68
2021/10/30 08:01:57;;;;;;;10.30;9.30;;;11.30;99.90;;;;;;4997167;28;20628;-68
2021/10/30 08:04:23;;;;;;;10.43;9.40;;;11.30;99.90;;;;;;4997992;28;20787;-68
2021/10/30 08:06:48;;;;;;;11.30;9.23;;;11.30;99.90;;;;;;5006161;28;20717;-66
2021/10/30 08:09:14;;;;;;;10.00;8.93;;;11.20;99.90;;;;;;5018439;28;20243;-68
2021/10/30 08:11:40;;;;;;;10.60;9.03;;;11.30;99.90;;;;;;5009440;28;20213;-67
2021/10/30 08:14:06;;;;;;;9.80;8.80;;;11.40;99.90;;;;;;5015517;28;20212;-67
2021/10/30 08:16:32;;;;;;;11.40;9.03;;;11.40;99.90;;;;;;5014042;28;20671;-67
2021/10/30 08:19:00;;;;;;;9.17;8.23;;;11.50;99.90;;;;;;5019794;28;20696;-64
2021/10/30 08:21:26;;;;;;;9.93;8.93;;;11.60;99.90;;;;;;5014146;28;20677;-68
2021/10/30 08:23:52;;;;;;;9.83;8.70;;;11.60;99.90;;;;;;5014040;28;20675;-65
2021/10/30 08:26:18;;;;;;;10.30;8.80;;;11.70;99.90;;;;;;5017634;28;20197;-67
2021/10/30 08:28:47;;;;;;;10.40;8.50;;;11.70;99.90;;;;;;5017233;28;20181;-65
2021/10/30 08:31:13;;;;;;;9.93;8.10;;;11.90;99.90;;;;;;5010586;28;20689;-64
2021/10/30 08:33:38;;;;;;;10.30;9.10;;;11.90;99.90;;;;;;5010650;28;20691;-65
2021/10/30 08:36:04;;;;;;;10.97;8.20;;;12.10;99.90;;;;;;5009367;28;22021;-65
2021/10/30 08:38:31;;;;;;;10.30;8.90;;;12.20;99.90;;;;;;5009807;28;20195;-65
2021/10/30 08:40:58;;;;;;;9.27;8.37;;;12.20;99.90;;;;;;5012223;28;20942;-65
2021/10/30 08:43:25;;;;;;;12.73;8.77;;;12.20;99.90;;;;;;5011351;28;20660;-67
2021/10/30 08:45:52;;;;;;;8.27;7.43;;;12.30;99.90;;;;;;4988978;28;20789;-64
2021/10/30 08:48:23;;;;;;;9.47;8.40;;;12.30;99.90;;;;;;4994588;28;20632;-64
2021/10/30 08:50:53;;;;;;;9.47;8.40;;;12.50;99.90;;;;;;5015816;28;21245;-64
2021/10/30 08:53:23;;;;;;;11.20;8.40;;;12.60;99.90;;;;;;5015711;28;20660;-64
2021/10/30 08:55:58;;;;;;;9.23;8.00;;;12.50;99.90;;;;;;5016541;28;20607;-65
2021/10/30 08:58:27;;;;;;;9.90;8.00;;;12.70;99.90;;;;;;5017701;28;20591;-67
2021/10/30 09:00:55;;;;;;;10.40;8.70;;;12.70;99.90;;;;;;5016966;28;20639;-67
2021/10/30 09:03:22;;;;;;;10.07;8.07;;;12.90;99.90;;;;;;5016140;28;21046;-67
2021/10/30 09:05:54;;;;;;;10.50;7.90;;;13.00;99.90;;;;;;5017403;28;20615;-67
2021/10/30 09:08:23;;;;;;;9.57;7.73;;;13.10;99.90;;;;;;5020873;28;20616;-67
2021/10/30 09:10:51;;;;;;;10.13;7.97;;;13.10;99.90;;;;;;5024405;28;20654;-67
2021/10/30 09:13:21;;;;;;;9.80;7.07;;;13.20;99.90;;;;;;5023606;28;20666;-67
2021/10/30 09:15:51;;;;;;;8.10;7.30;;;13.30;99.90;;;;;;5024061;28;20681;-67
2021/10/30 09:18:35;;;;;;;9.60;8.70;;;13.40;99.90;;;;;;5020872;28;20642;-66
2021/10/30 09:21:04;;;;;;;11.50;9.30;;;13.40;99.90;;;;;;5022202;28;21056;-67
2021/10/30 09:23:37;;;;;;;9.23;7.20;;;13.40;99.90;;;;;;5024430;28;20703;-67
2021/10/30 09:26:05;;;;;;;8.20;7.20;;;13.50;99.90;;;;;;5023397;28;20623;-68
2021/10/30 09:28:33;;;;;;;7.90;6.93;;;13.50;99.90;;;;;;5020697;28;20962;-69
2021/10/30 09:31:06;;;;;;;8.27;7.30;;;13.50;99.90;;;;;;5020214;28;20627;-66
2021/10/30 09:33:33;;;;;;;8.80;7.20;;;13.50;99.90;;;;;;5023154;28;20659;-66
2021/10/30 09:36:10;;;;;;;7.37;6.67;;;13.50;99.90;;;;;;5021013;28;20686;-66
2021/10/30 09:38:47;;;;;;;6.87;6.00;;;13.50;99.90;;;;;;5021883;28;20673;-66
2021/10/30 09:41:37;;;;;;;7.50;6.70;;;13.50;99.90;;;;;;5021450;28;21206;-67
2021/10/30 09:44:17;;;;;;;7.60;6.77;;;13.40;99.90;;;;;;5021260;28;21305;-66
2021/10/30 09:46:46;;;;;;;7.70;7.00;;;13.40;99.90;;;;;;5022390;28;20620;-67
2021/10/30 09:49:16;;;;;;;7.30;6.37;;;13.50;99.90;;;;;;5022591;28;20722;-66
2021/10/30 09:51:44;;;;;;;7.60;6.80;;;13.60;99.90;;;;;;5024065;28;20647;-66
2021/10/30 09:54:10;;;;;;;7.40;6.70;;;13.40;99.90;;;;;;5020982;28;20801;-65
2021/10/30 09:56:40;;;;;;;7.97;6.80;;;13.50;99.90;;;;;;5020268;28;20726;-66
2021/10/30 09:59:09;;;;;;;6.87;6.17;;;13.50;99.90;;;;;;5018792;28;20238;-66
2021/10/30 10:01:37;;;;;;;8.23;6.63;;;13.60;99.90;;;;;;5021483;28;20632;-66
2021/10/30 10:04:04;;;;;;;9.90;6.77;;;13.70;99.90;;;;;;5018042;28;21080;-66
2021/10/30 10:06:31;;;;;;;8.00;7.07;;;13.70;99.90;;;;;;5012075;28;20639;-66
2021/10/30 10:08:59;;;;;;;6.83;6.13;;;13.80;99.90;;;;;;5024674;28;20614;-66
2021/10/30 10:11:25;;;;;;;8.00;6.00;;;13.80;99.90;;;;;;5020454;28;20627;-68
2021/10/30 10:13:51;;;;;;;6.50;5.90;;;13.90;99.90;;;;;;5020455;28;21018;-66
2021/10/30 10:16:19;;;;;;;7.03;6.33;;;13.90;99.90;;;;;;5018917;28;20604;-66
2021/10/30 10:18:46;;;;;;;8.37;6.93;;;14.00;99.90;;;;;;5019238;28;20610;-67
2021/10/30 10:21:15;;;;;;;7.83;6.30;;;14.10;99.90;;;;;;5018506;28;20646;-66
2021/10/30 10:23:42;;;;;;;7.67;6.87;;;14.20;99.90;;;;;;5022301;28;20982;-66
2021/10/30 10:26:08;;;;;;;8.00;6.77;;;14.30;99.90;;;;;;5020806;28;20615;-67
2021/10/30 10:28:35;;;;;;;6.83;6.20;;;14.40;99.90;;;;;;5020441;28;20623;-66
2021/10/30 10:31:10;;;;;;;7.03;6.33;;;14.50;99.90;;;;;;5025285;28;20223;-67
2021/10/30 10:33:38;;;;;;;7.97;7.17;;;14.60;99.90;;;;;;5024232;28;21462;-66
2021/10/30 10:36:17;;;;;;;7.20;6.50;;;14.80;99.90;;;;;;5025953;28;20612;-67
2021/10/30 10:38:58;;;;;;;6.97;6.27;;;14.90;99.90;;;;;;5023273;28;20615;-67
2021/10/30 10:41:43;;;;;;;7.17;6.47;;;15.10;99.90;;;;;;5023363;28;21245;-67
2021/10/30 10:44:16;;;;;;;7.67;6.97;;;15.30;99.90;;;;;;5006260;28;20642;-66
2021/10/30 10:46:49;;;;;;;7.97;7.23;;;15.40;99.90;;;;;;5024002;28;20680;-66
2021/10/30 10:49:17;;;;;;;8.27;7.07;;;15.40;99.90;;;;;;5008672;28;20666;-67
2021/10/30 10:51:47;;;;;;;7.77;7.03;;;15.50;99.90;;;;;;5023029;28;20993;-67
2021/10/30 10:54:12;;;;;;;7.30;6.60;;;15.50;99.90;;;;;;5022253;28;20647;-66
2021/10/30 10:57:00;;;;;;;7.27;6.53;;;15.60;99.90;;;;;;5019677;28;20684;-67
2021/10/30 10:59:41;;;;;;;10.33;7.00;;;15.70;99.90;;;;;;5022476;28;20311;-66
2021/10/30 11:02:18;;;;;;;8.00;7.00;;;15.60;99.90;;;;;;5019614;28;20750;-66
2021/10/30 11:05:14;;;;;;;7.77;7.07;;;15.80;99.90;;;;;;5023373;28;20607;-66
2021/10/30 11:08:07;;;;;;;7.60;6.90;;;15.80;99.90;;;;;;5020940;28;20611;-67
2021/10/30 11:10:44;;;;;;;8.70;6.90;;;15.90;99.90;;;;;;5022172;28;20630;-66
2021/10/30 11:13:13;;;;;;;6.40;5.80;;;16.00;99.90;;;;;;5022419;28;20820;-66
2021/10/30 11:15:39;;;;;;;7.60;6.80;;;16.00;99.90;;;;;;5023464;28;20711;-67
2021/10/30 11:18:08;;;;;;;7.27;6.37;;;15.90;99.90;;;;;;5022282;28;21437;-67
2021/10/30 11:20:39;;;;;;;7.37;6.60;;;15.90;99.90;;;;;;5022331;28;20227;-67
2021/10/30 11:23:14;;;;;;;5.70;5.20;;;16.00;99.90;;;;;;5022401;28;20762;-67
2021/10/30 11:25:39;;;;;;;7.30;6.03;;;16.00;99.90;;;;;;5023294;28;20649;-66
2021/10/30 11:28:05;;;;;;;6.23;5.60;;;16.00;99.90;;;;;;5024096;28;20747;-66
2021/10/30 11:30:40;;;;;;;6.80;6.20;;;16.00;99.90;;;;;;5020747;28;20228;-66
2021/10/30 11:33:24;;;;;;;6.10;5.50;;;16.10;99.90;;;;;;5022122;28;20652;-66
2021/10/30 11:35:59;;;;;;;6.80;5.87;;;16.00;99.90;;;;;;5024964;28;20711;-66
2021/10/30 11:38:25;;;;;;;6.63;6.03;;;16.10;99.90;;;;;;5022820;28;20622;-66
2021/10/30 11:41:03;;;;;;;6.60;5.90;;;16.10;99.90;;;;;;5021142;28;20635;-66
2021/10/30 11:43:31;;;;;;;6.87;6.17;;;16.10;99.90;;;;;;5022796;28;20658;-66
2021/10/30 11:46:08;;;;;;;6.70;6.10;;;16.00;99.90;;;;;;5019829;28;20620;-66
2021/10/30 11:48:39;;;;;;;6.63;5.93;;;16.00;99.90;;;;;;5020863;28;20587;-67
2021/10/30 11:51:30;;;;;;;6.97;6.27;;;16.10;99.90;;;;;;5021148;28;20643;-67
2021/10/30 11:53:56;;;;;;;6.33;5.83;;;16.10;99.90;;;;;;5010881;28;20691;-66
2021/10/30 11:56:28;;;;;;;6.53;5.47;;;16.10;99.90;;;;;;5022495;28;20680;-66
2021/10/30 11:59:06;;;;;;;6.17;5.60;;;16.10;99.90;;;;;;5021496;28;20635;-66
2021/10/30 12:01:38;;;;;;;7.90;6.57;;;16.10;99.90;;;;;;5021942;28;20941;-66
2021/10/30 12:04:14;;;;;;;7.53;6.17;;;16.10;99.90;;;;;;5021242;28;20769;-66
2021/10/30 12:06:44;;;;;;;7.53;6.60;;;16.10;99.90;;;;;;4961756;28;1056329;-66
2021/10/30 12:09:28;;;;;;;7.47;6.77;;;16.10;99.90;;;;;;5023183;28;20262;-66
2021/10/30 12:11:56;;;;;;;8.70;7.00;;;16.10;99.90;;;;;;5022111;28;20718;-66
2021/10/30 12:14:31;;;;;;;7.20;6.53;;;16.00;99.90;;;;;;5021509;28;20789;-66
2021/10/30 12:16:59;;;;;;;6.70;6.10;;;16.00;99.90;;;;;;5020469;28;20642;-67
2021/10/30 12:19:27;;;;;;;6.90;6.33;;;16.10;99.90;;;;;;5021793;28;20685;-66
2021/10/30 12:22:23;;;;;;;7.30;6.60;;;16.10;99.90;;;;;;5021171;28;20850;-67
2021/10/30 12:25:15;;;;;;;7.90;7.10;;;16.00;99.90;;;;;;4985936;28;20704;-66
2021/10/30 12:27:49;;;;;;;8.03;7.23;;;16.00;99.90;;;;;;5021767;28;20627;-67
2021/10/30 12:30:25;;;;;;;8.80;7.83;;;16.00;99.90;;;;;;5004579;28;20627;-62
2021/10/30 12:32:53;;;;;;;7.90;7.10;;;16.00;99.90;;;;;;5003437;28;20695;-62
2021/10/30 12:35:22;;;;;;;8.40;7.57;;;16.00;99.90;;;;;;5004516;28;21311;-66
2021/10/30 12:37:49;;;;;;;8.27;7.50;;;16.00;99.90;;;;;;5008765;28;21221;-67
2021/10/30 12:40:15;;;;;;;8.03;7.30;;;15.90;99.90;;;;;;4988983;28;20889;-66
2021/10/30 12:42:42;;;;;;;9.87;7.93;;;15.90;99.90;;;;;;5010300;28;20651;-67
2021/10/30 12:45:08;;;;;;;9.27;8.37;;;15.90;99.90;;;;;;5010015;28;21145;-66
2021/10/30 12:47:34;;;;;;;8.90;8.00;;;15.90;99.90;;;;;;5012235;28;21231;-66
2021/10/30 12:50:08;;;;;;;13.00;8.67;;;15.90;99.90;;;;;;5007095;28;21389;-66
2021/10/30 12:52:45;;;;;;;12.30;9.30;;;15.90;99.90;;;;;;5011941;28;20655;-66
2021/10/30 12:55:23;;;;;;;9.07;8.27;;;15.90;99.90;;;;;;5015829;28;20607;-66